Huvudsida
METAR-TAF:

METAR-TAF

Flygplatser :

Brunei flygplats

Brunei, Brunei

latitud: 04-56N, longitud: 114-56E, höjd: 22 m

Aktuellt väderrapport

Denna rapport gjordes för 31 minuter sedan, klockan 11:30 UTC
Vind 2 kt från väst/nordväst
Temperatur 29°C
Fuktighet 84%
Tryck 1007 hPa
Sikt: 7000 m
Få moln på en höjd av 1500 ft
Brutna moln på en höjd av 30000 ft

METAR: WBSB 161130Z 29002KT 7000 FEW015 BKN300 29/26 Q1007 NOSIG

Tid: 20:01 (12:01 UTC)

Väderprognos

Denna rapport gjordes för 1 timme och 1 minuter sedan, klockan 11:00 UTC
Prognos gäller från 16 kl. 12 UTC till 17 kl. 18 UTC
Vind 3 kt från väst/sydväst
Sikt: 7000 m
Få moln på en höjd av 1500 ft
Blir
från 17 kl. 03 UTC till 17 kl. 05 UTC
Vind 10 kt från nord/nordväst
Få moln på en höjd av 1700 ft

TAF: WBSB 161100Z 1612/1718 24003KT 7000 FEW015 BECMG 1703/1705 34010KT FEW017

Aktuella väderrapporter och prognoser från 4000 flygplatser (METAR- och TAF-rapporter).

De tillgängliga stationerna syns som gula och röda prickar på kartan.

För musen över prickarna för att se namnen på stationerna.

Klicka sedan för att få väderrapporter och prognoser.

För att ändra kartan: Klicka på de gröna knapparna med ett svart kors på för att zooma in; den gröna knappen med ett streck på för att zooma ut; eller på de gröna pilarna för angränsande kartor.


METAR-TAF: